sensor_id;sensor_type;location;lat;lon;timestamp;P1;durP1;ratioP1;P2;durP2;ratioP2
18387;SDS011;9320;50.256;19.026;2022-08-19T00:02:19;12.82;;;11.07;;
18387;SDS011;9320;50.256;19.026;2022-08-19T00:04:48;15.77;;;12.55;;
18387;SDS011;9320;50.256;19.026;2022-08-19T00:07:18;15.77;;;12.07;;
18387;SDS011;9320;50.256;19.026;2022-08-19T00:09:48;14.30;;;11.60;;
18387;SDS011;9320;50.256;19.026;2022-08-19T00:12:17;16.92;;;12.20;;
18387;SDS011;9320;50.256;19.026;2022-08-19T00:14:46;18.25;;;12.55;;
18387;SDS011;9320;50.256;19.026;2022-08-19T00:17:14;18.05;;;11.80;;
18387;SDS011;9320;50.256;19.026;2022-08-19T00:19:43;13.80;;;12.07;;
18387;SDS011;9320;50.256;19.026;2022-08-19T00:22:11;15.18;;;12.35;;
18387;SDS011;9320;50.256;19.026;2022-08-19T00:24:39;17.13;;;11.90;;
18387;SDS011;9320;50.256;19.026;2022-08-19T00:27:17;14.35;;;11.98;;
18387;SDS011;9320;50.256;19.026;2022-08-19T00:29:51;18.00;;;12.45;;
18387;SDS011;9320;50.256;19.026;2022-08-19T00:32:20;15.52;;;12.48;;
18387;SDS011;9320;50.256;19.026;2022-08-19T00:34:49;13.88;;;11.85;;
18387;SDS011;9320;50.256;19.026;2022-08-19T00:37:19;14.27;;;12.35;;
18387;SDS011;9320;50.256;19.026;2022-08-19T00:39:49;14.52;;;11.95;;
18387;SDS011;9320;50.256;19.026;2022-08-19T00:42:20;15.63;;;12.35;;
18387;SDS011;9320;50.256;19.026;2022-08-19T00:44:48;15.00;;;12.40;;
18387;SDS011;9320;50.256;19.026;2022-08-19T00:47:17;19.13;;;12.55;;
18387;SDS011;9320;50.256;19.026;2022-08-19T00:49:47;19.58;;;13.02;;
18387;SDS011;9320;50.256;19.026;2022-08-19T00:52:19;15.32;;;12.70;;
18387;SDS011;9320;50.256;19.026;2022-08-19T00:54:48;16.50;;;13.02;;
18387;SDS011;9320;50.256;19.026;2022-08-19T00:57:27;15.60;;;13.52;;
18387;SDS011;9320;50.256;19.026;2022-08-19T00:59:56;20.50;;;12.85;;
18387;SDS011;9320;50.256;19.026;2022-08-19T01:02:29;16.65;;;13.07;;
18387;SDS011;9320;50.256;19.026;2022-08-19T01:04:57;15.55;;;13.25;;
18387;SDS011;9320;50.256;19.026;2022-08-19T01:07:26;17.02;;;12.57;;
18387;SDS011;9320;50.256;19.026;2022-08-19T01:10:01;17.02;;;13.20;;
18387;SDS011;9320;50.256;19.026;2022-08-19T01:12:31;18.35;;;13.35;;
18387;SDS011;9320;50.256;19.026;2022-08-19T01:14:59;17.85;;;13.60;;
18387;SDS011;9320;50.256;19.026;2022-08-19T01:17:27;17.88;;;13.95;;
18387;SDS011;9320;50.256;19.026;2022-08-19T01:19:56;20.00;;;13.75;;
18387;SDS011;9320;50.256;19.026;2022-08-19T01:22:27;19.40;;;13.18;;
18387;SDS011;9320;50.256;19.026;2022-08-19T01:24:59;18.20;;;13.55;;
18387;SDS011;9320;50.256;19.026;2022-08-19T01:27:36;16.67;;;12.98;;
18387;SDS011;9320;50.256;19.026;2022-08-19T01:30:09;19.40;;;13.60;;
18387;SDS011;9320;50.256;19.026;2022-08-19T01:32:38;20.13;;;13.63;;
18387;SDS011;9320;50.256;19.026;2022-08-19T01:35:07;23.75;;;14.35;;
18387;SDS011;9320;50.256;19.026;2022-08-19T01:37:44;18.15;;;13.98;;
18387;SDS011;9320;50.256;19.026;2022-08-19T01:40:14;17.48;;;13.80;;
18387;SDS011;9320;50.256;19.026;2022-08-19T01:42:42;20.17;;;13.80;;
18387;SDS011;9320;50.256;19.026;2022-08-19T01:45:11;16.98;;;13.48;;
18387;SDS011;9320;50.256;19.026;2022-08-19T01:47:39;19.50;;;13.73;;
18387;SDS011;9320;50.256;19.026;2022-08-19T01:50:16;17.17;;;13.10;;
18387;SDS011;9320;50.256;19.026;2022-08-19T01:52:48;16.83;;;13.45;;
18387;SDS011;9320;50.256;19.026;2022-08-19T01:55:32;17.15;;;13.18;;
18387;SDS011;9320;50.256;19.026;2022-08-19T01:58:06;19.73;;;14.32;;
18387;SDS011;9320;50.256;19.026;2022-08-19T02:00:35;15.23;;;13.52;;
18387;SDS011;9320;50.256;19.026;2022-08-19T02:03:04;21.55;;;14.35;;
18387;SDS011;9320;50.256;19.026;2022-08-19T02:05:32;18.52;;;14.43;;
18387;SDS011;9320;50.256;19.026;2022-08-19T02:08:02;15.75;;;13.15;;
18387;SDS011;9320;50.256;19.026;2022-08-19T02:10:31;15.93;;;13.50;;
18387;SDS011;9320;50.256;19.026;2022-08-19T02:12:59;16.55;;;14.27;;
18387;SDS011;9320;50.256;19.026;2022-08-19T02:15:28;16.75;;;13.57;;
18387;SDS011;9320;50.256;19.026;2022-08-19T02:17:57;17.10;;;13.93;;
18387;SDS011;9320;50.256;19.026;2022-08-19T02:20:25;18.70;;;14.05;;
18387;SDS011;9320;50.256;19.026;2022-08-19T02:22:53;18.23;;;13.85;;
18387;SDS011;9320;50.256;19.026;2022-08-19T02:25:23;19.45;;;14.13;;
18387;SDS011;9320;50.256;19.026;2022-08-19T02:27:51;17.35;;;13.80;;
18387;SDS011;9320;50.256;19.026;2022-08-19T02:30:20;15.35;;;13.18;;
18387;SDS011;9320;50.256;19.026;2022-08-19T02:32:48;17.05;;;13.50;;
18387;SDS011;9320;50.256;19.026;2022-08-19T02:35:17;19.30;;;13.95;;
18387;SDS011;9320;50.256;19.026;2022-08-19T02:37:45;19.35;;;13.95;;
18387;SDS011;9320;50.256;19.026;2022-08-19T02:40:49;19.13;;;14.50;;
18387;SDS011;9320;50.256;19.026;2022-08-19T02:43:19;18.58;;;14.32;;
18387;SDS011;9320;50.256;19.026;2022-08-19T02:45:48;16.70;;;13.48;;
18387;SDS011;9320;50.256;19.026;2022-08-19T02:48:17;15.55;;;13.65;;
18387;SDS011;9320;50.256;19.026;2022-08-19T02:50:48;19.50;;;14.07;;
18387;SDS011;9320;50.256;19.026;2022-08-19T02:53:22;16.98;;;13.75;;
18387;SDS011;9320;50.256;19.026;2022-08-19T02:55:52;16.90;;;13.45;;
18387;SDS011;9320;50.256;19.026;2022-08-19T02:58:21;19.60;;;13.40;;
18387;SDS011;9320;50.256;19.026;2022-08-19T03:00:51;17.88;;;13.82;;
18387;SDS011;9320;50.256;19.026;2022-08-19T03:03:19;19.35;;;14.18;;
18387;SDS011;9320;50.256;19.026;2022-08-19T03:05:48;19.70;;;14.00;;
18387;SDS011;9320;50.256;19.026;2022-08-19T03:08:38;17.85;;;13.15;;
18387;SDS011;9320;50.256;19.026;2022-08-19T03:11:12;18.95;;;13.70;;
18387;SDS011;9320;50.256;19.026;2022-08-19T03:13:40;19.80;;;14.40;;
18387;SDS011;9320;50.256;19.026;2022-08-19T03:16:10;21.02;;;14.40;;
18387;SDS011;9320;50.256;19.026;2022-08-19T03:18:39;21.50;;;13.70;;
18387;SDS011;9320;50.256;19.026;2022-08-19T03:21:07;18.83;;;14.45;;
18387;SDS011;9320;50.256;19.026;2022-08-19T03:23:39;23.90;;;15.82;;
18387;SDS011;9320;50.256;19.026;2022-08-19T03:26:07;19.05;;;14.70;;
18387;SDS011;9320;50.256;19.026;2022-08-19T03:28:42;20.80;;;14.80;;
18387;SDS011;9320;50.256;19.026;2022-08-19T03:31:17;18.80;;;14.38;;
18387;SDS011;9320;50.256;19.026;2022-08-19T03:34:06;19.90;;;14.77;;
18387;SDS011;9320;50.256;19.026;2022-08-19T03:36:35;19.30;;;15.40;;
18387;SDS011;9320;50.256;19.026;2022-08-19T03:39:05;23.92;;;15.57;;
18387;SDS011;9320;50.256;19.026;2022-08-19T03:41:36;18.60;;;15.02;;
18387;SDS011;9320;50.256;19.026;2022-08-19T03:44:11;19.20;;;14.63;;
18387;SDS011;9320;50.256;19.026;2022-08-19T03:46:44;25.67;;;15.40;;
18387;SDS011;9320;50.256;19.026;2022-08-19T03:49:12;21.55;;;15.43;;
18387;SDS011;9320;50.256;19.026;2022-08-19T03:51:43;17.33;;;14.23;;
18387;SDS011;9320;50.256;19.026;2022-08-19T03:54:15;18.02;;;15.10;;
18387;SDS011;9320;50.256;19.026;2022-08-19T03:56:44;19.50;;;14.95;;
18387;SDS011;9320;50.256;19.026;2022-08-19T03:59:13;17.88;;;14.00;;
18387;SDS011;9320;50.256;19.026;2022-08-19T04:01:42;16.92;;;14.10;;
18387;SDS011;9320;50.256;19.026;2022-08-19T04:04:10;18.38;;;14.32;;
18387;SDS011;9320;50.256;19.026;2022-08-19T04:06:39;20.38;;;13.45;;
18387;SDS011;9320;50.256;19.026;2022-08-19T04:09:09;16.30;;;13.82;;
18387;SDS011;9320;50.256;19.026;2022-08-19T04:11:40;17.77;;;13.38;;
18387;SDS011;9320;50.256;19.026;2022-08-19T04:14:11;18.00;;;13.43;;
18387;SDS011;9320;50.256;19.026;2022-08-19T04:16:40;16.80;;;13.82;;
18387;SDS011;9320;50.256;19.026;2022-08-19T04:19:10;17.42;;;14.45;;
18387;SDS011;9320;50.256;19.026;2022-08-19T04:21:38;18.88;;;14.43;;
18387;SDS011;9320;50.256;19.026;2022-08-19T04:24:07;18.35;;;14.43;;
18387;SDS011;9320;50.256;19.026;2022-08-19T04:26:36;20.25;;;14.52;;
18387;SDS011;9320;50.256;19.026;2022-08-19T04:29:07;18.85;;;14.90;;
18387;SDS011;9320;50.256;19.026;2022-08-19T04:31:38;16.95;;;13.65;;
18387;SDS011;9320;50.256;19.026;2022-08-19T04:34:07;20.27;;;13.88;;
18387;SDS011;9320;50.256;19.026;2022-08-19T04:36:36;16.90;;;14.07;;
18387;SDS011;9320;50.256;19.026;2022-08-19T04:39:06;18.67;;;13.63;;
18387;SDS011;9320;50.256;19.026;2022-08-19T04:41:35;18.00;;;13.27;;
18387;SDS011;9320;50.256;19.026;2022-08-19T04:44:22;19.98;;;14.30;;
18387;SDS011;9320;50.256;19.026;2022-08-19T04:46:51;21.70;;;13.07;;
18387;SDS011;9320;50.256;19.026;2022-08-19T04:49:21;17.00;;;14.00;;
18387;SDS011;9320;50.256;19.026;2022-08-19T04:51:50;16.88;;;13.82;;
18387;SDS011;9320;50.256;19.026;2022-08-19T04:54:18;17.63;;;13.43;;
18387;SDS011;9320;50.256;19.026;2022-08-19T04:57:04;21.38;;;13.90;;
18387;SDS011;9320;50.256;19.026;2022-08-19T04:59:35;17.50;;;13.98;;
18387;SDS011;9320;50.256;19.026;2022-08-19T05:02:04;18.20;;;13.70;;
18387;SDS011;9320;50.256;19.026;2022-08-19T05:04:33;18.35;;;13.60;;
18387;SDS011;9320;50.256;19.026;2022-08-19T05:07:01;17.35;;;13.25;;
18387;SDS011;9320;50.256;19.026;2022-08-19T05:09:30;20.55;;;13.73;;
18387;SDS011;9320;50.256;19.026;2022-08-19T05:12:18;15.70;;;12.98;;
18387;SDS011;9320;50.256;19.026;2022-08-19T05:14:48;18.38;;;13.68;;
18387;SDS011;9320;50.256;19.026;2022-08-19T05:17:16;21.30;;;13.13;;
18387;SDS011;9320;50.256;19.026;2022-08-19T05:19:55;16.73;;;13.60;;
18387;SDS011;9320;50.256;19.026;2022-08-19T05:22:42;20.17;;;14.18;;
18387;SDS011;9320;50.256;19.026;2022-08-19T05:25:11;16.30;;;13.30;;
18387;SDS011;9320;50.256;19.026;2022-08-19T05:27:40;15.00;;;13.40;;
18387;SDS011;9320;50.256;19.026;2022-08-19T05:30:11;17.05;;;13.10;;
18387;SDS011;9320;50.256;19.026;2022-08-19T05:32:39;18.30;;;13.48;;
18387;SDS011;9320;50.256;19.026;2022-08-19T05:35:08;18.33;;;13.13;;
18387;SDS011;9320;50.256;19.026;2022-08-19T05:37:37;16.58;;;13.70;;
18387;SDS011;9320;50.256;19.026;2022-08-19T05:40:07;17.48;;;13.63;;
18387;SDS011;9320;50.256;19.026;2022-08-19T05:42:36;16.63;;;12.98;;
18387;SDS011;9320;50.256;19.026;2022-08-19T05:45:04;15.85;;;12.55;;
18387;SDS011;9320;50.256;19.026;2022-08-19T05:47:34;19.30;;;13.68;;
18387;SDS011;9320;50.256;19.026;2022-08-19T05:50:07;19.70;;;13.35;;
18387;SDS011;9320;50.256;19.026;2022-08-19T05:52:36;18.88;;;13.05;;
18387;SDS011;9320;50.256;19.026;2022-08-19T05:55:11;18.35;;;12.85;;
18387;SDS011;9320;50.256;19.026;2022-08-19T05:57:39;16.45;;;13.10;;
18387;SDS011;9320;50.256;19.026;2022-08-19T06:00:08;17.08;;;12.32;;
18387;SDS011;9320;50.256;19.026;2022-08-19T06:02:39;19.05;;;12.70;;
18387;SDS011;9320;50.256;19.026;2022-08-19T06:05:08;18.55;;;12.93;;
18387;SDS011;9320;50.256;19.026;2022-08-19T06:07:37;19.95;;;13.80;;
18387;SDS011;9320;50.256;19.026;2022-08-19T06:10:06;20.40;;;12.93;;
18387;SDS011;9320;50.256;19.026;2022-08-19T06:12:35;18.27;;;12.98;;
18387;SDS011;9320;50.256;19.026;2022-08-19T06:15:05;19.00;;;12.93;;
18387;SDS011;9320;50.256;19.026;2022-08-19T06:17:33;17.80;;;12.80;;
18387;SDS011;9320;50.256;19.026;2022-08-19T06:20:04;18.13;;;12.63;;
18387;SDS011;9320;50.256;19.026;2022-08-19T06:22:36;18.92;;;12.80;;
18387;SDS011;9320;50.256;19.026;2022-08-19T06:25:05;15.93;;;12.20;;
18387;SDS011;9320;50.256;19.026;2022-08-19T06:27:35;18.67;;;12.00;;
18387;SDS011;9320;50.256;19.026;2022-08-19T06:30:18;19.55;;;12.57;;
18387;SDS011;9320;50.256;19.026;2022-08-19T06:32:46;19.02;;;12.45;;
18387;SDS011;9320;50.256;19.026;2022-08-19T06:35:18;19.42;;;13.02;;
18387;SDS011;9320;50.256;19.026;2022-08-19T06:37:46;14.50;;;11.75;;
18387;SDS011;9320;50.256;19.026;2022-08-19T06:40:14;17.27;;;11.77;;
18387;SDS011;9320;50.256;19.026;2022-08-19T06:42:43;15.30;;;12.43;;
18387;SDS011;9320;50.256;19.026;2022-08-19T06:45:20;15.63;;;11.43;;
18387;SDS011;9320;50.256;19.026;2022-08-19T06:47:50;17.92;;;12.50;;
18387;SDS011;9320;50.256;19.026;2022-08-19T06:50:23;18.00;;;12.27;;
18387;SDS011;9320;50.256;19.026;2022-08-19T06:52:52;16.33;;;12.38;;
18387;SDS011;9320;50.256;19.026;2022-08-19T06:55:20;20.25;;;12.25;;
18387;SDS011;9320;50.256;19.026;2022-08-19T06:57:49;16.77;;;12.00;;
18387;SDS011;9320;50.256;19.026;2022-08-19T07:00:19;19.85;;;12.43;;
18387;SDS011;9320;50.256;19.026;2022-08-19T07:02:48;18.67;;;12.02;;
18387;SDS011;9320;50.256;19.026;2022-08-19T07:05:24;18.85;;;12.00;;
18387;SDS011;9320;50.256;19.026;2022-08-19T07:07:52;15.18;;;11.55;;
18387;SDS011;9320;50.256;19.026;2022-08-19T07:10:24;16.23;;;12.15;;
18387;SDS011;9320;50.256;19.026;2022-08-19T07:12:52;19.30;;;11.43;;
18387;SDS011;9320;50.256;19.026;2022-08-19T07:15:21;17.02;;;11.82;;
18387;SDS011;9320;50.256;19.026;2022-08-19T07:17:50;14.98;;;11.50;;
18387;SDS011;9320;50.256;19.026;2022-08-19T07:20:18;17.15;;;11.93;;
18387;SDS011;9320;50.256;19.026;2022-08-19T07:22:55;18.52;;;11.95;;
18387;SDS011;9320;50.256;19.026;2022-08-19T07:25:23;15.82;;;11.80;;
18387;SDS011;9320;50.256;19.026;2022-08-19T07:27:58;15.45;;;12.15;;
18387;SDS011;9320;50.256;19.026;2022-08-19T07:30:27;16.67;;;12.27;;
18387;SDS011;9320;50.256;19.026;2022-08-19T07:32:56;14.55;;;11.38;;
18387;SDS011;9320;50.256;19.026;2022-08-19T07:35:28;14.23;;;12.10;;
18387;SDS011;9320;50.256;19.026;2022-08-19T07:38:00;14.27;;;11.93;;
18387;SDS011;9320;50.256;19.026;2022-08-19T07:40:30;15.57;;;11.88;;
18387;SDS011;9320;50.256;19.026;2022-08-19T07:42:58;15.90;;;11.57;;
18387;SDS011;9320;50.256;19.026;2022-08-19T07:45:27;14.85;;;11.85;;
18387;SDS011;9320;50.256;19.026;2022-08-19T07:47:55;12.35;;;11.00;;
18387;SDS011;9320;50.256;19.026;2022-08-19T07:50:25;14.68;;;11.75;;
18387;SDS011;9320;50.256;19.026;2022-08-19T07:52:54;18.02;;;12.40;;
18387;SDS011;9320;50.256;19.026;2022-08-19T07:55:24;15.32;;;11.52;;
18387;SDS011;9320;50.256;19.026;2022-08-19T07:58:09;14.63;;;11.57;;
18387;SDS011;9320;50.256;19.026;2022-08-19T08:00:37;18.15;;;12.13;;
18387;SDS011;9320;50.256;19.026;2022-08-19T08:03:05;14.63;;;11.55;;
18387;SDS011;9320;50.256;19.026;2022-08-19T08:05:34;19.17;;;11.32;;
18387;SDS011;9320;50.256;19.026;2022-08-19T08:08:20;17.17;;;11.38;;
18387;SDS011;9320;50.256;19.026;2022-08-19T08:11:11;15.48;;;11.80;;
18387;SDS011;9320;50.256;19.026;2022-08-19T08:13:41;15.43;;;11.00;;
18387;SDS011;9320;50.256;19.026;2022-08-19T08:16:09;16.38;;;11.10;;
18387;SDS011;9320;50.256;19.026;2022-08-19T08:18:39;17.15;;;11.95;;
18387;SDS011;9320;50.256;19.026;2022-08-19T08:21:18;15.80;;;12.02;;
18387;SDS011;9320;50.256;19.026;2022-08-19T08:23:46;18.77;;;11.65;;
18387;SDS011;9320;50.256;19.026;2022-08-19T08:26:19;20.65;;;11.68;;
18387;SDS011;9320;50.256;19.026;2022-08-19T08:28:48;16.75;;;11.90;;
18387;SDS011;9320;50.256;19.026;2022-08-19T08:31:16;15.13;;;11.77;;
18387;SDS011;9320;50.256;19.026;2022-08-19T08:33:45;16.75;;;11.88;;
18387;SDS011;9320;50.256;19.026;2022-08-19T08:36:14;19.67;;;11.68;;
18387;SDS011;9320;50.256;19.026;2022-08-19T08:38:43;17.85;;;12.23;;
18387;SDS011;9320;50.256;19.026;2022-08-19T08:41:14;15.82;;;11.77;;
18387;SDS011;9320;50.256;19.026;2022-08-19T08:43:48;18.58;;;11.93;;
18387;SDS011;9320;50.256;19.026;2022-08-19T08:46:19;16.20;;;12.15;;
18387;SDS011;9320;50.256;19.026;2022-08-19T08:48:58;15.55;;;12.05;;
18387;SDS011;9320;50.256;19.026;2022-08-19T08:51:33;14.68;;;12.05;;
18387;SDS011;9320;50.256;19.026;2022-08-19T08:54:04;17.98;;;11.50;;
18387;SDS011;9320;50.256;19.026;2022-08-19T08:56:37;21.67;;;12.15;;
18387;SDS011;9320;50.256;19.026;2022-08-19T08:59:07;15.20;;;11.82;;
18387;SDS011;9320;50.256;19.026;2022-08-19T09:01:38;18.70;;;11.80;;
18387;SDS011;9320;50.256;19.026;2022-08-19T09:04:06;15.65;;;11.77;;
18387;SDS011;9320;50.256;19.026;2022-08-19T09:06:36;18.35;;;12.23;;
18387;SDS011;9320;50.256;19.026;2022-08-19T09:09:10;20.05;;;11.82;;
18387;SDS011;9320;50.256;19.026;2022-08-19T09:11:47;15.95;;;11.45;;
18387;SDS011;9320;50.256;19.026;2022-08-19T09:14:23;16.95;;;11.57;;
18387;SDS011;9320;50.256;19.026;2022-08-19T09:17:16;16.73;;;11.13;;
18387;SDS011;9320;50.256;19.026;2022-08-19T09:19:49;16.92;;;11.20;;
18387;SDS011;9320;50.256;19.026;2022-08-19T09:22:18;17.90;;;11.40;;
18387;SDS011;9320;50.256;19.026;2022-08-19T09:24:52;13.30;;;10.80;;
18387;SDS011;9320;50.256;19.026;2022-08-19T09:27:21;17.77;;;10.85;;
18387;SDS011;9320;50.256;19.026;2022-08-19T09:30:10;20.17;;;10.73;;
18387;SDS011;9320;50.256;19.026;2022-08-19T09:32:39;13.65;;;10.45;;
18387;SDS011;9320;50.256;19.026;2022-08-19T09:35:09;22.20;;;11.27;;
18387;SDS011;9320;50.256;19.026;2022-08-19T09:37:37;17.60;;;10.68;;
18387;SDS011;9320;50.256;19.026;2022-08-19T09:40:06;21.70;;;10.85;;
18387;SDS011;9320;50.256;19.026;2022-08-19T09:42:37;13.90;;;10.10;;
18387;SDS011;9320;50.256;19.026;2022-08-19T09:45:19;16.10;;;10.60;;
18387;SDS011;9320;50.256;19.026;2022-08-19T09:47:49;14.55;;;10.70;;
18387;SDS011;9320;50.256;19.026;2022-08-19T09:50:20;17.67;;;10.35;;
18387;SDS011;9320;50.256;19.026;2022-08-19T09:52:49;13.80;;;10.23;;
18387;SDS011;9320;50.256;19.026;2022-08-19T09:55:23;18.10;;;10.43;;
18387;SDS011;9320;50.256;19.026;2022-08-19T09:57:57;15.05;;;10.77;;
18387;SDS011;9320;50.256;19.026;2022-08-19T10:00:27;12.98;;;10.10;;
18387;SDS011;9320;50.256;19.026;2022-08-19T10:02:56;13.57;;;9.82;;
18387;SDS011;9320;50.256;19.026;2022-08-19T10:05:26;14.20;;;9.70;;
18387;SDS011;9320;50.256;19.026;2022-08-19T10:08:14;17.67;;;11.55;;
18387;SDS011;9320;50.256;19.026;2022-08-19T10:10:43;15.45;;;10.48;;
18387;SDS011;9320;50.256;19.026;2022-08-19T10:13:13;12.93;;;9.93;;
18387;SDS011;9320;50.256;19.026;2022-08-19T10:15:43;13.50;;;9.70;;
18387;SDS011;9320;50.256;19.026;2022-08-19T10:18:14;14.85;;;9.07;;
18387;SDS011;9320;50.256;19.026;2022-08-19T10:20:44;16.48;;;10.00;;
18387;SDS011;9320;50.256;19.026;2022-08-19T10:23:17;13.50;;;9.07;;
18387;SDS011;9320;50.256;19.026;2022-08-19T10:25:46;14.52;;;9.35;;
18387;SDS011;9320;50.256;19.026;2022-08-19T10:28:15;15.85;;;9.25;;
18387;SDS011;9320;50.256;19.026;2022-08-19T10:30:46;45.83;;;11.35;;
18387;SDS011;9320;50.256;19.026;2022-08-19T10:33:14;83.45;;;14.48;;
18387;SDS011;9320;50.256;19.026;2022-08-19T10:36:04;16.83;;;8.85;;
18387;SDS011;9320;50.256;19.026;2022-08-19T10:38:33;81.20;;;14.93;;
18387;SDS011;9320;50.256;19.026;2022-08-19T10:41:08;64.85;;;14.20;;
18387;SDS011;9320;50.256;19.026;2022-08-19T10:43:37;18.00;;;9.52;;
18387;SDS011;9320;50.256;19.026;2022-08-19T10:46:07;89.38;;;15.07;;
18387;SDS011;9320;50.256;19.026;2022-08-19T10:48:39;85.95;;;14.70;;
18387;SDS011;9320;50.256;19.026;2022-08-19T10:51:08;353.08;;;30.83;;
18387;SDS011;9320;50.256;19.026;2022-08-19T10:53:54;158.65;;;20.75;;
18387;SDS011;9320;50.256;19.026;2022-08-19T10:56:23;101.72;;;15.90;;
18387;SDS011;9320;50.256;19.026;2022-08-19T10:59:09;116.72;;;15.52;;
18387;SDS011;9320;50.256;19.026;2022-08-19T11:01:39;153.35;;;20.60;;
18387;SDS011;9320;50.256;19.026;2022-08-19T11:04:08;48.53;;;11.40;;
18387;SDS011;9320;50.256;19.026;2022-08-19T11:06:40;39.45;;;11.65;;
18387;SDS011;9320;50.256;19.026;2022-08-19T11:09:09;59.00;;;13.00;;
18387;SDS011;9320;50.256;19.026;2022-08-19T11:11:38;55.80;;;12.73;;
18387;SDS011;9320;50.256;19.026;2022-08-19T11:14:07;17.15;;;8.70;;
18387;SDS011;9320;50.256;19.026;2022-08-19T11:16:36;31.85;;;9.40;;
18387;SDS011;9320;50.256;19.026;2022-08-19T11:19:07;22.15;;;9.23;;
18387;SDS011;9320;50.256;19.026;2022-08-19T11:21:36;12.70;;;8.00;;
18387;SDS011;9320;50.256;19.026;2022-08-19T11:24:06;13.32;;;8.10;;
18387;SDS011;9320;50.256;19.026;2022-08-19T11:26:36;15.40;;;8.50;;
18387;SDS011;9320;50.256;19.026;2022-08-19T11:29:05;20.48;;;8.70;;
18387;SDS011;9320;50.256;19.026;2022-08-19T11:31:37;14.23;;;8.10;;
18387;SDS011;9320;50.256;19.026;2022-08-19T11:34:08;13.35;;;8.25;;
18387;SDS011;9320;50.256;19.026;2022-08-19T11:36:38;14.88;;;7.95;;
18387;SDS011;9320;50.256;19.026;2022-08-19T11:39:07;13.48;;;7.55;;
18387;SDS011;9320;50.256;19.026;2022-08-19T11:41:35;14.15;;;8.07;;
18387;SDS011;9320;50.256;19.026;2022-08-19T11:44:03;19.02;;;7.50;;
18387;SDS011;9320;50.256;19.026;2022-08-19T11:46:32;13.80;;;7.97;;
18387;SDS011;9320;50.256;19.026;2022-08-19T11:49:02;9.93;;;7.68;;
18387;SDS011;9320;50.256;19.026;2022-08-19T11:51:37;11.73;;;7.68;;
18387;SDS011;9320;50.256;19.026;2022-08-19T11:54:05;14.40;;;8.20;;
18387;SDS011;9320;50.256;19.026;2022-08-19T11:56:34;14.20;;;7.95;;
18387;SDS011;9320;50.256;19.026;2022-08-19T11:59:04;14.73;;;7.25;;
18387;SDS011;9320;50.256;19.026;2022-08-19T12:01:39;10.00;;;7.55;;
18387;SDS011;9320;50.256;19.026;2022-08-19T12:04:09;14.45;;;7.85;;
18387;SDS011;9320;50.256;19.026;2022-08-19T12:06:39;9.88;;;7.40;;
18387;SDS011;9320;50.256;19.026;2022-08-19T12:09:08;15.60;;;8.10;;
18387;SDS011;9320;50.256;19.026;2022-08-19T12:11:37;14.30;;;7.88;;
18387;SDS011;9320;50.256;19.026;2022-08-19T12:14:06;13.95;;;7.63;;
18387;SDS011;9320;50.256;19.026;2022-08-19T12:16:40;11.85;;;7.75;;
18387;SDS011;9320;50.256;19.026;2022-08-19T12:19:17;21.05;;;8.23;;
18387;SDS011;9320;50.256;19.026;2022-08-19T12:21:49;11.85;;;6.95;;
18387;SDS011;9320;50.256;19.026;2022-08-19T12:24:17;11.43;;;7.82;;
18387;SDS011;9320;50.256;19.026;2022-08-19T12:26:49;15.68;;;8.15;;
18387;SDS011;9320;50.256;19.026;2022-08-19T12:29:19;9.13;;;7.10;;
18387;SDS011;9320;50.256;19.026;2022-08-19T12:31:49;12.82;;;7.63;;
18387;SDS011;9320;50.256;19.026;2022-08-19T12:34:17;15.95;;;7.88;;
18387;SDS011;9320;50.256;19.026;2022-08-19T12:36:46;14.27;;;7.45;;
18387;SDS011;9320;50.256;19.026;2022-08-19T12:39:17;12.02;;;7.68;;
18387;SDS011;9320;50.256;19.026;2022-08-19T12:41:45;13.02;;;8.40;;
18387;SDS011;9320;50.256;19.026;2022-08-19T12:44:20;16.48;;;7.95;;
18387;SDS011;9320;50.256;19.026;2022-08-19T12:46:58;13.60;;;7.60;;
18387;SDS011;9320;50.256;19.026;2022-08-19T12:49:30;11.63;;;7.80;;
18387;SDS011;9320;50.256;19.026;2022-08-19T12:52:19;12.32;;;7.75;;
18387;SDS011;9320;50.256;19.026;2022-08-19T12:54:50;10.15;;;7.20;;
18387;SDS011;9320;50.256;19.026;2022-08-19T12:57:20;12.68;;;8.00;;
18387;SDS011;9320;50.256;19.026;2022-08-19T12:59:58;13.68;;;8.02;;
18387;SDS011;9320;50.256;19.026;2022-08-19T13:02:30;13.90;;;8.13;;
18387;SDS011;9320;50.256;19.026;2022-08-19T13:05:04;14.63;;;8.00;;
18387;SDS011;9320;50.256;19.026;2022-08-19T13:07:34;10.80;;;7.80;;
18387;SDS011;9320;50.256;19.026;2022-08-19T13:10:05;14.90;;;7.93;;
18387;SDS011;9320;50.256;19.026;2022-08-19T13:12:34;11.70;;;8.18;;
18387;SDS011;9320;50.256;19.026;2022-08-19T13:15:02;10.82;;;7.30;;
18387;SDS011;9320;50.256;19.026;2022-08-19T13:17:37;14.27;;;7.53;;
18387;SDS011;9320;50.256;19.026;2022-08-19T13:20:06;13.35;;;7.93;;
18387;SDS011;9320;50.256;19.026;2022-08-19T13:22:34;18.80;;;7.53;;
18387;SDS011;9320;50.256;19.026;2022-08-19T13:25:05;12.18;;;7.30;;
18387;SDS011;9320;50.256;19.026;2022-08-19T13:27:34;11.57;;;6.95;;
18387;SDS011;9320;50.256;19.026;2022-08-19T13:30:03;12.35;;;7.70;;
18387;SDS011;9320;50.256;19.026;2022-08-19T13:32:49;20.60;;;8.35;;
18387;SDS011;9320;50.256;19.026;2022-08-19T13:35:36;16.02;;;7.70;;
18387;SDS011;9320;50.256;19.026;2022-08-19T13:38:04;18.75;;;8.10;;
18387;SDS011;9320;50.256;19.026;2022-08-19T13:40:38;15.25;;;8.25;;
18387;SDS011;9320;50.256;19.026;2022-08-19T13:43:07;14.00;;;7.80;;
18387;SDS011;9320;50.256;19.026;2022-08-19T13:45:48;13.82;;;7.57;;
18387;SDS011;9320;50.256;19.026;2022-08-19T13:48:23;13.40;;;7.68;;
18387;SDS011;9320;50.256;19.026;2022-08-19T13:50:52;14.82;;;8.27;;
18387;SDS011;9320;50.256;19.026;2022-08-19T13:53:21;13.10;;;7.95;;
18387;SDS011;9320;50.256;19.026;2022-08-19T13:55:51;25.48;;;8.95;;
18387;SDS011;9320;50.256;19.026;2022-08-19T13:58:20;184.90;;;21.98;;
18387;SDS011;9320;50.256;19.026;2022-08-19T14:00:48;32.97;;;9.93;;
18387;SDS011;9320;50.256;19.026;2022-08-19T14:03:17;36.35;;;9.68;;
18387;SDS011;9320;50.256;19.026;2022-08-19T14:05:45;23.30;;;9.02;;
18387;SDS011;9320;50.256;19.026;2022-08-19T14:08:14;27.05;;;9.20;;
18387;SDS011;9320;50.256;19.026;2022-08-19T14:10:42;23.23;;;9.25;;
18387;SDS011;9320;50.256;19.026;2022-08-19T14:13:15;13.75;;;8.00;;
18387;SDS011;9320;50.256;19.026;2022-08-19T14:15:44;21.33;;;8.02;;
18387;SDS011;9320;50.256;19.026;2022-08-19T14:18:13;18.95;;;8.13;;
18387;SDS011;9320;50.256;19.026;2022-08-19T14:20:41;15.27;;;8.15;;
18387;SDS011;9320;50.256;19.026;2022-08-19T14:23:10;16.58;;;8.57;;
18387;SDS011;9320;50.256;19.026;2022-08-19T14:25:39;11.82;;;7.90;;
18387;SDS011;9320;50.256;19.026;2022-08-19T14:28:08;14.05;;;8.05;;
18387;SDS011;9320;50.256;19.026;2022-08-19T14:30:38;19.35;;;8.30;;
18387;SDS011;9320;50.256;19.026;2022-08-19T14:33:06;20.63;;;8.82;;
18387;SDS011;9320;50.256;19.026;2022-08-19T14:35:35;14.07;;;8.57;;
18387;SDS011;9320;50.256;19.026;2022-08-19T14:38:04;16.45;;;8.30;;
18387;SDS011;9320;50.256;19.026;2022-08-19T14:40:33;16.55;;;8.35;;
18387;SDS011;9320;50.256;19.026;2022-08-19T14:43:02;14.20;;;7.88;;
18387;SDS011;9320;50.256;19.026;2022-08-19T14:45:31;15.68;;;8.27;;
18387;SDS011;9320;50.256;19.026;2022-08-19T14:48:03;15.07;;;7.65;;
18387;SDS011;9320;50.256;19.026;2022-08-19T14:50:31;14.98;;;7.82;;